sensor_id;sensor_type;location;lat;lon;timestamp;P1;durP1;ratioP1;P2;durP2;ratioP2
21860;SDS011;11095;48.066;8.540;2022-07-23T00:00:58;11.07;;;9.90;;
21860;SDS011;11095;48.066;8.540;2022-07-23T00:03:24;10.20;;;9.15;;
21860;SDS011;11095;48.066;8.540;2022-07-23T00:05:50;11.88;;;9.25;;
21860;SDS011;11095;48.066;8.540;2022-07-23T00:08:15;9.57;;;8.65;;
21860;SDS011;11095;48.066;8.540;2022-07-23T00:10:41;8.73;;;7.93;;
21860;SDS011;11095;48.066;8.540;2022-07-23T00:13:07;10.13;;;9.05;;
21860;SDS011;11095;48.066;8.540;2022-07-23T00:15:32;10.38;;;8.70;;
21860;SDS011;11095;48.066;8.540;2022-07-23T00:17:58;10.52;;;9.02;;
21860;SDS011;11095;48.066;8.540;2022-07-23T00:20:24;9.00;;;8.10;;
21860;SDS011;11095;48.066;8.540;2022-07-23T00:22:52;9.15;;;8.25;;
21860;SDS011;11095;48.066;8.540;2022-07-23T00:25:19;8.90;;;7.43;;
21860;SDS011;11095;48.066;8.540;2022-07-23T00:27:46;8.10;;;7.38;;
21860;SDS011;11095;48.066;8.540;2022-07-23T00:30:12;8.85;;;7.07;;
21860;SDS011;11095;48.066;8.540;2022-07-23T00:32:45;8.25;;;7.43;;
21860;SDS011;11095;48.066;8.540;2022-07-23T00:35:15;8.02;;;7.20;;
21860;SDS011;11095;48.066;8.540;2022-07-23T00:37:43;9.27;;;7.80;;
21860;SDS011;11095;48.066;8.540;2022-07-23T00:40:10;8.43;;;7.63;;
21860;SDS011;11095;48.066;8.540;2022-07-23T00:42:36;8.48;;;7.68;;
21860;SDS011;11095;48.066;8.540;2022-07-23T00:45:02;8.05;;;7.25;;
21860;SDS011;11095;48.066;8.540;2022-07-23T00:47:28;8.95;;;8.05;;
21860;SDS011;11095;48.066;8.540;2022-07-23T00:49:54;8.70;;;7.90;;
21860;SDS011;11095;48.066;8.540;2022-07-23T00:52:19;10.70;;;8.32;;
21860;SDS011;11095;48.066;8.540;2022-07-23T00:54:45;8.98;;;8.15;;
21860;SDS011;11095;48.066;8.540;2022-07-23T00:57:11;9.02;;;8.13;;
21860;SDS011;11095;48.066;8.540;2022-07-23T00:59:40;9.70;;;8.73;;
21860;SDS011;11095;48.066;8.540;2022-07-23T01:02:06;8.60;;;7.80;;
21860;SDS011;11095;48.066;8.540;2022-07-23T01:04:32;10.38;;;8.98;;
21860;SDS011;11095;48.066;8.540;2022-07-23T01:06:58;9.70;;;8.70;;
21860;SDS011;11095;48.066;8.540;2022-07-23T01:09:23;10.93;;;9.88;;
21860;SDS011;11095;48.066;8.540;2022-07-23T01:11:50;10.38;;;9.32;;
21860;SDS011;11095;48.066;8.540;2022-07-23T01:14:17;9.80;;;8.90;;
21860;SDS011;11095;48.066;8.540;2022-07-23T01:16:44;10.77;;;9.77;;
21860;SDS011;11095;48.066;8.540;2022-07-23T01:19:11;9.65;;;8.68;;
21860;SDS011;11095;48.066;8.540;2022-07-23T01:21:38;9.65;;;8.75;;
21860;SDS011;11095;48.066;8.540;2022-07-23T01:24:08;9.65;;;8.75;;
21860;SDS011;11095;48.066;8.540;2022-07-23T01:26:35;12.02;;;10.18;;
21860;SDS011;11095;48.066;8.540;2022-07-23T01:29:02;12.82;;;11.57;;
21860;SDS011;11095;48.066;8.540;2022-07-23T01:31:28;11.95;;;10.77;;
21860;SDS011;11095;48.066;8.540;2022-07-23T01:33:53;10.75;;;9.68;;
21860;SDS011;11095;48.066;8.540;2022-07-23T01:36:19;13.65;;;11.13;;
21860;SDS011;11095;48.066;8.540;2022-07-23T01:38:45;11.05;;;9.57;;
21860;SDS011;11095;48.066;8.540;2022-07-23T01:41:12;11.15;;;10.05;;
21860;SDS011;11095;48.066;8.540;2022-07-23T01:43:38;10.45;;;9.45;;
21860;SDS011;11095;48.066;8.540;2022-07-23T01:46:03;12.73;;;9.95;;
21860;SDS011;11095;48.066;8.540;2022-07-23T01:48:29;10.82;;;9.73;;
21860;SDS011;11095;48.066;8.540;2022-07-23T01:50:54;11.18;;;10.00;;
21860;SDS011;11095;48.066;8.540;2022-07-23T01:53:20;10.95;;;9.82;;
21860;SDS011;11095;48.066;8.540;2022-07-23T01:55:46;12.75;;;10.07;;
21860;SDS011;11095;48.066;8.540;2022-07-23T01:58:13;11.73;;;10.20;;
21860;SDS011;11095;48.066;8.540;2022-07-23T02:00:38;9.80;;;8.80;;
21860;SDS011;11095;48.066;8.540;2022-07-23T02:03:04;10.77;;;9.68;;
21860;SDS011;11095;48.066;8.540;2022-07-23T02:05:29;11.80;;;10.60;;
21860;SDS011;11095;48.066;8.540;2022-07-23T02:07:56;11.35;;;10.20;;
21860;SDS011;11095;48.066;8.540;2022-07-23T02:10:23;11.68;;;10.25;;
21860;SDS011;11095;48.066;8.540;2022-07-23T02:12:49;10.52;;;9.52;;
21860;SDS011;11095;48.066;8.540;2022-07-23T02:15:14;10.63;;;9.45;;
21860;SDS011;11095;48.066;8.540;2022-07-23T02:17:40;11.35;;;10.25;;
21860;SDS011;11095;48.066;8.540;2022-07-23T02:20:06;11.60;;;10.38;;
21860;SDS011;11095;48.066;8.540;2022-07-23T02:22:33;10.88;;;9.88;;
21860;SDS011;11095;48.066;8.540;2022-07-23T02:24:59;13.13;;;10.65;;
21860;SDS011;11095;48.066;8.540;2022-07-23T02:27:25;11.73;;;10.52;;
21860;SDS011;11095;48.066;8.540;2022-07-23T02:29:51;9.75;;;8.85;;
21860;SDS011;11095;48.066;8.540;2022-07-23T02:32:16;10.68;;;9.65;;
21860;SDS011;11095;48.066;8.540;2022-07-23T02:34:42;11.20;;;10.00;;
21860;SDS011;11095;48.066;8.540;2022-07-23T02:37:08;11.50;;;10.30;;
21860;SDS011;11095;48.066;8.540;2022-07-23T02:39:34;11.30;;;10.15;;
21860;SDS011;11095;48.066;8.540;2022-07-23T02:42:00;12.88;;;10.23;;
21860;SDS011;11095;48.066;8.540;2022-07-23T02:44:27;11.07;;;9.98;;
21860;SDS011;11095;48.066;8.540;2022-07-23T02:46:52;11.48;;;10.32;;
21860;SDS011;11095;48.066;8.540;2022-07-23T02:49:18;12.82;;;10.90;;
21860;SDS011;11095;48.066;8.540;2022-07-23T02:51:44;11.75;;;10.55;;
21860;SDS011;11095;48.066;8.540;2022-07-23T02:54:10;12.98;;;10.68;;
21860;SDS011;11095;48.066;8.540;2022-07-23T02:56:35;11.93;;;10.73;;
21860;SDS011;11095;48.066;8.540;2022-07-23T02:59:01;12.63;;;11.43;;
21860;SDS011;11095;48.066;8.540;2022-07-23T03:01:26;12.60;;;11.25;;
21860;SDS011;11095;48.066;8.540;2022-07-23T03:03:52;13.05;;;11.65;;
21860;SDS011;11095;48.066;8.540;2022-07-23T03:06:18;12.05;;;10.75;;
21860;SDS011;11095;48.066;8.540;2022-07-23T03:08:43;12.35;;;11.15;;
21860;SDS011;11095;48.066;8.540;2022-07-23T03:11:09;11.68;;;10.30;;
21860;SDS011;11095;48.066;8.540;2022-07-23T03:13:37;14.13;;;12.00;;
21860;SDS011;11095;48.066;8.540;2022-07-23T03:16:03;11.73;;;10.57;;
21860;SDS011;11095;48.066;8.540;2022-07-23T03:18:30;12.73;;;11.43;;
21860;SDS011;11095;48.066;8.540;2022-07-23T03:20:56;13.48;;;11.43;;
21860;SDS011;11095;48.066;8.540;2022-07-23T03:23:21;11.75;;;10.57;;
21860;SDS011;11095;48.066;8.540;2022-07-23T03:25:47;11.75;;;10.15;;
21860;SDS011;11095;48.066;8.540;2022-07-23T03:28:13;11.95;;;10.75;;
21860;SDS011;11095;48.066;8.540;2022-07-23T03:30:40;12.50;;;11.25;;
21860;SDS011;11095;48.066;8.540;2022-07-23T03:33:12;12.90;;;10.98;;
21860;SDS011;11095;48.066;8.540;2022-07-23T03:35:38;13.88;;;12.27;;
21860;SDS011;11095;48.066;8.540;2022-07-23T03:38:04;12.88;;;11.57;;
21860;SDS011;11095;48.066;8.540;2022-07-23T03:40:30;12.65;;;11.35;;
21860;SDS011;11095;48.066;8.540;2022-07-23T03:42:56;13.15;;;11.85;;
21860;SDS011;11095;48.066;8.540;2022-07-23T03:45:21;14.13;;;12.73;;
21860;SDS011;11095;48.066;8.540;2022-07-23T03:47:47;13.57;;;12.18;;
21860;SDS011;11095;48.066;8.540;2022-07-23T03:50:13;13.63;;;11.90;;
21860;SDS011;11095;48.066;8.540;2022-07-23T03:52:38;15.02;;;13.20;;
21860;SDS011;11095;48.066;8.540;2022-07-23T03:55:04;12.65;;;11.13;;
21860;SDS011;11095;48.066;8.540;2022-07-23T03:57:30;11.80;;;10.60;;
21860;SDS011;11095;48.066;8.540;2022-07-23T03:59:56;13.32;;;11.93;;
21860;SDS011;11095;48.066;8.540;2022-07-23T04:02:22;12.20;;;10.90;;
21860;SDS011;11095;48.066;8.540;2022-07-23T04:04:48;15.18;;;12.00;;
21860;SDS011;11095;48.066;8.540;2022-07-23T04:07:13;16.55;;;12.35;;
21860;SDS011;11095;48.066;8.540;2022-07-23T04:09:39;15.30;;;12.40;;
21860;SDS011;11095;48.066;8.540;2022-07-23T04:12:05;15.18;;;12.57;;
21860;SDS011;11095;48.066;8.540;2022-07-23T04:14:32;16.33;;;12.80;;
21860;SDS011;11095;48.066;8.540;2022-07-23T04:16:58;17.02;;;13.23;;
21860;SDS011;11095;48.066;8.540;2022-07-23T04:19:24;14.40;;;12.88;;
21860;SDS011;11095;48.066;8.540;2022-07-23T04:21:50;16.90;;;13.93;;
21860;SDS011;11095;48.066;8.540;2022-07-23T04:24:15;15.15;;;13.60;;
21860;SDS011;11095;48.066;8.540;2022-07-23T04:26:41;16.08;;;14.35;;
21860;SDS011;11095;48.066;8.540;2022-07-23T04:29:07;16.80;;;14.35;;
21860;SDS011;11095;48.066;8.540;2022-07-23T04:31:32;16.17;;;13.57;;
21860;SDS011;11095;48.066;8.540;2022-07-23T04:33:58;15.13;;;13.60;;
21860;SDS011;11095;48.066;8.540;2022-07-23T04:36:23;16.65;;;14.10;;
21860;SDS011;11095;48.066;8.540;2022-07-23T04:38:49;15.85;;;13.50;;
21860;SDS011;11095;48.066;8.540;2022-07-23T04:41:15;17.35;;;13.45;;
21860;SDS011;11095;48.066;8.540;2022-07-23T04:43:40;17.27;;;13.88;;
21860;SDS011;11095;48.066;8.540;2022-07-23T04:46:06;15.25;;;13.27;;
21860;SDS011;11095;48.066;8.540;2022-07-23T04:48:32;14.90;;;13.27;;
21860;SDS011;11095;48.066;8.540;2022-07-23T04:50:57;14.05;;;12.55;;
21860;SDS011;11095;48.066;8.540;2022-07-23T04:53:23;13.80;;;12.20;;
21860;SDS011;11095;48.066;8.540;2022-07-23T04:55:48;13.80;;;12.40;;
21860;SDS011;11095;48.066;8.540;2022-07-23T04:58:15;12.73;;;11.48;;
21860;SDS011;11095;48.066;8.540;2022-07-23T05:00:41;17.02;;;13.15;;
21860;SDS011;11095;48.066;8.540;2022-07-23T05:03:06;12.35;;;10.90;;
21860;SDS011;11095;48.066;8.540;2022-07-23T05:05:32;11.13;;;10.07;;
21860;SDS011;11095;48.066;8.540;2022-07-23T05:07:58;10.65;;;9.57;;
21860;SDS011;11095;48.066;8.540;2022-07-23T05:10:23;10.65;;;9.55;;
21860;SDS011;11095;48.066;8.540;2022-07-23T05:12:49;10.77;;;9.68;;
21860;SDS011;11095;48.066;8.540;2022-07-23T05:15:14;11.85;;;10.65;;
21860;SDS011;11095;48.066;8.540;2022-07-23T05:17:40;11.70;;;10.32;;
21860;SDS011;11095;48.066;8.540;2022-07-23T05:20:06;10.80;;;9.70;;
21860;SDS011;11095;48.066;8.540;2022-07-23T05:22:32;10.55;;;9.40;;
21860;SDS011;11095;48.066;8.540;2022-07-23T05:24:58;10.40;;;9.30;;
21860;SDS011;11095;48.066;8.540;2022-07-23T05:27:23;10.82;;;9.73;;
21860;SDS011;11095;48.066;8.540;2022-07-23T05:29:49;10.90;;;9.23;;
21860;SDS011;11095;48.066;8.540;2022-07-23T05:32:15;10.05;;;8.98;;
21860;SDS011;11095;48.066;8.540;2022-07-23T05:34:41;9.70;;;8.77;;
21860;SDS011;11095;48.066;8.540;2022-07-23T05:37:06;8.45;;;7.53;;
21860;SDS011;11095;48.066;8.540;2022-07-23T05:39:32;8.30;;;7.43;;
21860;SDS011;11095;48.066;8.540;2022-07-23T05:41:57;9.38;;;7.32;;
21860;SDS011;11095;48.066;8.540;2022-07-23T05:44:23;7.13;;;6.43;;
21860;SDS011;11095;48.066;8.540;2022-07-23T05:46:49;7.88;;;7.07;;
21860;SDS011;11095;48.066;8.540;2022-07-23T05:49:14;6.88;;;6.05;;
21860;SDS011;11095;48.066;8.540;2022-07-23T05:51:40;6.32;;;5.70;;
21860;SDS011;11095;48.066;8.540;2022-07-23T05:54:05;6.78;;;5.78;;
21860;SDS011;11095;48.066;8.540;2022-07-23T05:56:31;7.55;;;6.60;;
21860;SDS011;11095;48.066;8.540;2022-07-23T05:58:59;6.38;;;5.70;;
21860;SDS011;11095;48.066;8.540;2022-07-23T06:01:25;6.00;;;5.40;;
21860;SDS011;11095;48.066;8.540;2022-07-23T06:03:51;7.28;;;5.60;;
21860;SDS011;11095;48.066;8.540;2022-07-23T06:06:55;7.03;;;6.13;;
21860;SDS011;11095;48.066;8.540;2022-07-23T06:09:30;5.70;;;5.20;;
21860;SDS011;11095;48.066;8.540;2022-07-23T06:11:55;7.32;;;6.45;;
21860;SDS011;11095;48.066;8.540;2022-07-23T06:14:21;6.50;;;5.72;;
21860;SDS011;11095;48.066;8.540;2022-07-23T06:16:47;5.47;;;4.97;;
21860;SDS011;11095;48.066;8.540;2022-07-23T06:19:13;6.30;;;5.70;;
21860;SDS011;11095;48.066;8.540;2022-07-23T06:21:39;6.43;;;5.82;;
21860;SDS011;11095;48.066;8.540;2022-07-23T06:24:05;6.65;;;5.97;;
21860;SDS011;11095;48.066;8.540;2022-07-23T06:26:34;5.22;;;4.78;;
21860;SDS011;11095;48.066;8.540;2022-07-23T06:28:59;5.57;;;5.07;;
21860;SDS011;11095;48.066;8.540;2022-07-23T06:31:25;6.88;;;5.68;;
21860;SDS011;11095;48.066;8.540;2022-07-23T06:33:51;6.03;;;5.43;;
21860;SDS011;11095;48.066;8.540;2022-07-23T06:36:17;5.07;;;4.63;;
21860;SDS011;11095;48.066;8.540;2022-07-23T06:38:43;5.72;;;5.18;;
21860;SDS011;11095;48.066;8.540;2022-07-23T06:41:08;5.00;;;4.50;;
21860;SDS011;11095;48.066;8.540;2022-07-23T06:43:34;6.07;;;5.57;;
21860;SDS011;11095;48.066;8.540;2022-07-23T06:46:00;5.70;;;5.20;;
21860;SDS011;11095;48.066;8.540;2022-07-23T06:48:55;5.40;;;4.90;;
21860;SDS011;11095;48.066;8.540;2022-07-23T06:51:26;6.03;;;5.50;;
21860;SDS011;11095;48.066;8.540;2022-07-23T06:53:52;5.97;;;5.47;;
21860;SDS011;11095;48.066;8.540;2022-07-23T06:56:18;6.93;;;6.22;;
21860;SDS011;11095;48.066;8.540;2022-07-23T06:58:43;7.47;;;6.75;;
21860;SDS011;11095;48.066;8.540;2022-07-23T07:01:09;7.18;;;6.57;;
21860;SDS011;11095;48.066;8.540;2022-07-23T07:03:35;7.03;;;6.43;;
21860;SDS011;11095;48.066;8.540;2022-07-23T07:06:00;7.10;;;6.40;;
21860;SDS011;11095;48.066;8.540;2022-07-23T07:08:27;6.68;;;5.97;;
21860;SDS011;11095;48.066;8.540;2022-07-23T07:10:56;6.63;;;6.00;;
21860;SDS011;11095;48.066;8.540;2022-07-23T07:13:22;7.38;;;6.40;;
21860;SDS011;11095;48.066;8.540;2022-07-23T07:15:47;6.13;;;5.40;;
21860;SDS011;11095;48.066;8.540;2022-07-23T07:18:13;6.63;;;6.03;;
21860;SDS011;11095;48.066;8.540;2022-07-23T07:20:39;5.78;;;5.28;;
21860;SDS011;11095;48.066;8.540;2022-07-23T07:23:04;6.97;;;6.28;;
21860;SDS011;11095;48.066;8.540;2022-07-23T07:25:30;6.60;;;6.00;;
21860;SDS011;11095;48.066;8.540;2022-07-23T07:27:56;6.22;;;5.72;;
21860;SDS011;11095;48.066;8.540;2022-07-23T07:30:25;6.68;;;6.03;;
21860;SDS011;11095;48.066;8.540;2022-07-23T07:32:50;6.65;;;5.90;;
21860;SDS011;11095;48.066;8.540;2022-07-23T07:35:16;6.07;;;5.47;;
21860;SDS011;11095;48.066;8.540;2022-07-23T07:37:42;6.47;;;5.78;;
21860;SDS011;11095;48.066;8.540;2022-07-23T07:40:08;8.35;;;5.95;;
21860;SDS011;11095;48.066;8.540;2022-07-23T07:42:34;6.15;;;5.65;;
21860;SDS011;11095;48.066;8.540;2022-07-23T07:45:00;6.80;;;6.20;;
21860;SDS011;11095;48.066;8.540;2022-07-23T07:47:25;8.82;;;6.60;;
21860;SDS011;11095;48.066;8.540;2022-07-23T07:49:51;7.50;;;6.75;;
21860;SDS011;11095;48.066;8.540;2022-07-23T07:52:17;8.25;;;7.45;;
21860;SDS011;11095;48.066;8.540;2022-07-23T07:54:42;8.23;;;7.43;;
21860;SDS011;11095;48.066;8.540;2022-07-23T07:57:08;8.30;;;7.43;;
21860;SDS011;11095;48.066;8.540;2022-07-23T07:59:34;7.53;;;6.82;;
21860;SDS011;11095;48.066;8.540;2022-07-23T08:02:00;8.23;;;6.82;;
21860;SDS011;11095;48.066;8.540;2022-07-23T08:04:25;7.32;;;6.63;;
21860;SDS011;11095;48.066;8.540;2022-07-23T08:06:54;8.15;;;7.45;;
21860;SDS011;11095;48.066;8.540;2022-07-23T08:09:20;8.23;;;7.43;;
21860;SDS011;11095;48.066;8.540;2022-07-23T08:11:45;8.45;;;7.65;;
21860;SDS011;11095;48.066;8.540;2022-07-23T08:14:11;7.50;;;6.63;;
21860;SDS011;11095;48.066;8.540;2022-07-23T08:16:37;8.40;;;7.60;;
21860;SDS011;11095;48.066;8.540;2022-07-23T08:19:03;8.48;;;7.65;;
21860;SDS011;11095;48.066;8.540;2022-07-23T08:21:28;8.68;;;7.80;;
21860;SDS011;11095;48.066;8.540;2022-07-23T08:23:54;8.63;;;7.75;;
21860;SDS011;11095;48.066;8.540;2022-07-23T08:26:20;8.50;;;7.70;;
21860;SDS011;11095;48.066;8.540;2022-07-23T08:28:45;8.05;;;7.25;;
21860;SDS011;11095;48.066;8.540;2022-07-23T08:31:11;8.88;;;8.00;;
21860;SDS011;11095;48.066;8.540;2022-07-23T08:33:37;9.60;;;8.70;;
21860;SDS011;11095;48.066;8.540;2022-07-23T08:36:03;9.52;;;8.10;;
21860;SDS011;11095;48.066;8.540;2022-07-23T08:38:29;9.18;;;8.20;;
21860;SDS011;11095;48.066;8.540;2022-07-23T08:40:59;9.52;;;8.63;;
21860;SDS011;11095;48.066;8.540;2022-07-23T08:43:26;9.77;;;8.77;;
21860;SDS011;11095;48.066;8.540;2022-07-23T08:45:58;9.23;;;8.32;;
21860;SDS011;11095;48.066;8.540;2022-07-23T08:48:26;9.25;;;8.30;;
21860;SDS011;11095;48.066;8.540;2022-07-23T08:50:57;10.02;;;9.02;;
21860;SDS011;11095;48.066;8.540;2022-07-23T08:53:28;9.25;;;8.20;;
21860;SDS011;11095;48.066;8.540;2022-07-23T08:55:56;10.13;;;8.93;;
21860;SDS011;11095;48.066;8.540;2022-07-23T08:58:26;9.30;;;8.45;;
21860;SDS011;11095;48.066;8.540;2022-07-23T09:00:52;9.50;;;8.50;;
21860;SDS011;11095;48.066;8.540;2022-07-23T09:03:23;9.68;;;8.68;;
21860;SDS011;11095;48.066;8.540;2022-07-23T09:05:54;8.98;;;8.07;;
21860;SDS011;11095;48.066;8.540;2022-07-23T09:08:38;8.40;;;7.60;;
21860;SDS011;11095;48.066;8.540;2022-07-23T09:11:06;8.70;;;7.90;;
21860;SDS011;11095;48.066;8.540;2022-07-23T09:13:38;8.50;;;7.80;;
21860;SDS011;11095;48.066;8.540;2022-07-23T09:16:25;9.13;;;8.23;;
21860;SDS011;11095;48.066;8.540;2022-07-23T09:21:32;7.53;;;6.82;;
21860;SDS011;11095;48.066;8.540;2022-07-23T09:24:05;7.90;;;7.15;;
21860;SDS011;11095;48.066;8.540;2022-07-23T09:31:45;7.10;;;6.40;;
21860;SDS011;11095;48.066;8.540;2022-07-23T09:34:24;7.38;;;6.68;;
21860;SDS011;11095;48.066;8.540;2022-07-23T09:37:07;7.93;;;7.20;;
21860;SDS011;11095;48.066;8.540;2022-07-23T09:39:41;7.35;;;6.65;;
21860;SDS011;11095;48.066;8.540;2022-07-23T09:42:16;7.78;;;7.00;;
21860;SDS011;11095;48.066;8.540;2022-07-23T09:44:46;8.13;;;7.32;;
21860;SDS011;11095;48.066;8.540;2022-07-23T09:47:14;8.27;;;6.95;;
21860;SDS011;11095;48.066;8.540;2022-07-23T09:49:40;8.32;;;7.53;;
21860;SDS011;11095;48.066;8.540;2022-07-23T09:52:25;8.40;;;7.60;;
21860;SDS011;11095;48.066;8.540;2022-07-23T09:54:59;8.55;;;7.65;;
21860;SDS011;11095;48.066;8.540;2022-07-23T09:57:27;8.20;;;7.40;;
21860;SDS011;11095;48.066;8.540;2022-07-23T09:59:53;7.50;;;6.80;;
21860;SDS011;11095;48.066;8.540;2022-07-23T10:02:23;7.90;;;7.20;;
21860;SDS011;11095;48.066;8.540;2022-07-23T10:04:51;7.47;;;6.78;;
21860;SDS011;11095;48.066;8.540;2022-07-23T10:07:20;8.02;;;7.32;;
21860;SDS011;11095;48.066;8.540;2022-07-23T10:09:48;7.53;;;6.82;;
21860;SDS011;11095;48.066;8.540;2022-07-23T10:12:17;7.47;;;6.78;;
21860;SDS011;11095;48.066;8.540;2022-07-23T10:14:44;6.75;;;6.13;;
21860;SDS011;11095;48.066;8.540;2022-07-23T10:17:10;7.07;;;6.47;;
21860;SDS011;11095;48.066;8.540;2022-07-23T10:19:37;7.65;;;6.93;;
21860;SDS011;11095;48.066;8.540;2022-07-23T10:22:05;6.82;;;6.22;;
21860;SDS011;11095;48.066;8.540;2022-07-23T10:30:06;7.18;;;6.57;;
21860;SDS011;11095;48.066;8.540;2022-07-23T10:35:37;7.65;;;6.95;;
21860;SDS011;11095;48.066;8.540;2022-07-23T10:38:34;7.28;;;6.68;;
21860;SDS011;11095;48.066;8.540;2022-07-23T10:41:03;7.95;;;7.25;;
21860;SDS011;11095;48.066;8.540;2022-07-23T10:43:30;8.80;;;8.05;;
21860;SDS011;11095;48.066;8.540;2022-07-23T10:46:21;7.53;;;6.80;;
21860;SDS011;11095;48.066;8.540;2022-07-23T10:54:31;7.88;;;7.10;;
21860;SDS011;11095;48.066;8.540;2022-07-23T10:59:22;8.35;;;7.55;;
21860;SDS011;11095;48.066;8.540;2022-07-23T11:01:48;10.10;;;7.25;;
21860;SDS011;11095;48.066;8.540;2022-07-23T11:04:14;8.38;;;7.57;;
21860;SDS011;11095;48.066;8.540;2022-07-23T11:09:28;8.68;;;7.88;;
21860;SDS011;11095;48.066;8.540;2022-07-23T11:17:36;8.98;;;8.18;;
21860;SDS011;11095;48.066;8.540;2022-07-23T11:22:37;8.57;;;7.78;;
21860;SDS011;11095;48.066;8.540;2022-07-23T11:25:04;8.13;;;7.38;;
21860;SDS011;11095;48.066;8.540;2022-07-23T11:27:40;8.73;;;7.93;;
21860;SDS011;11095;48.066;8.540;2022-07-23T11:30:08;8.85;;;7.95;;
21860;SDS011;11095;48.066;8.540;2022-07-23T11:32:48;8.52;;;7.72;;
21860;SDS011;11095;48.066;8.540;2022-07-23T11:35:18;9.25;;;8.45;;
21860;SDS011;11095;48.066;8.540;2022-07-23T11:37:49;8.50;;;7.70;;
21860;SDS011;11095;48.066;8.540;2022-07-23T11:40:19;9.27;;;8.38;;
21860;SDS011;11095;48.066;8.540;2022-07-23T11:43:20;8.60;;;7.90;;
21860;SDS011;11095;48.066;8.540;2022-07-23T11:48:06;8.65;;;7.90;;
21860;SDS011;11095;48.066;8.540;2022-07-23T11:50:33;9.00;;;8.20;;
21860;SDS011;11095;48.066;8.540;2022-07-23T11:53:00;9.50;;;8.60;;
21860;SDS011;11095;48.066;8.540;2022-07-23T11:55:26;9.15;;;8.35;;
21860;SDS011;11095;48.066;8.540;2022-07-23T12:00:31;9.32;;;8.52;;
21860;SDS011;11095;48.066;8.540;2022-07-23T12:02:59;10.02;;;9.00;;
21860;SDS011;11095;48.066;8.540;2022-07-23T12:05:34;8.70;;;7.90;;
21860;SDS011;11095;48.066;8.540;2022-07-23T12:08:02;8.32;;;7.60;;
21860;SDS011;11095;48.066;8.540;2022-07-23T12:10:36;8.32;;;7.55;;
21860;SDS011;11095;48.066;8.540;2022-07-23T12:13:08;8.35;;;7.55;;
21860;SDS011;11095;48.066;8.540;2022-07-23T12:15:38;8.40;;;7.57;;
21860;SDS011;11095;48.066;8.540;2022-07-23T12:18:17;7.93;;;7.13;;
21860;SDS011;11095;48.066;8.540;2022-07-23T12:20:46;7.80;;;7.10;;
21860;SDS011;11095;48.066;8.540;2022-07-23T12:23:14;8.52;;;7.80;;
21860;SDS011;11095;48.066;8.540;2022-07-23T12:25:43;9.40;;;8.50;;
21860;SDS011;11095;48.066;8.540;2022-07-23T12:28:11;9.77;;;8.75;;
21860;SDS011;11095;48.066;8.540;2022-07-23T12:30:50;8.75;;;7.95;;
21860;SDS011;11095;48.066;8.540;2022-07-23T12:33:24;9.18;;;8.20;;
21860;SDS011;11095;48.066;8.540;2022-07-23T12:35:52;8.90;;;8.10;;
21860;SDS011;11095;48.066;8.540;2022-07-23T12:38:20;9.43;;;7.82;;
21860;SDS011;11095;48.066;8.540;2022-07-23T12:43:22;9.68;;;8.77;;
21860;SDS011;11095;48.066;8.540;2022-07-23T12:46:04;9.60;;;8.70;;
21860;SDS011;11095;48.066;8.540;2022-07-23T12:53:29;9.23;;;8.43;;
21860;SDS011;11095;48.066;8.540;2022-07-23T12:55:59;9.45;;;8.63;;
21860;SDS011;11095;48.066;8.540;2022-07-23T12:58:32;8.80;;;8.10;;
21860;SDS011;11095;48.066;8.540;2022-07-23T13:01:06;8.60;;;7.90;;
21860;SDS011;11095;48.066;8.540;2022-07-23T13:03:33;9.07;;;8.18;;
21860;SDS011;11095;48.066;8.540;2022-07-23T13:06:02;9.68;;;8.85;;
21860;SDS011;11095;48.066;8.540;2022-07-23T13:08:30;9.20;;;8.38;;
21860;SDS011;11095;48.066;8.540;2022-07-23T13:10:57;8.68;;;7.97;;
21860;SDS011;11095;48.066;8.540;2022-07-23T13:13:26;8.55;;;7.75;;
21860;SDS011;11095;48.066;8.540;2022-07-23T13:15:54;8.00;;;7.30;;
21860;SDS011;11095;48.066;8.540;2022-07-23T13:18:21;8.30;;;7.60;;
21860;SDS011;11095;48.066;8.540;2022-07-23T13:20:48;8.68;;;7.85;;
21860;SDS011;11095;48.066;8.540;2022-07-23T13:23:14;7.60;;;6.88;;
21860;SDS011;11095;48.066;8.540;2022-07-23T13:25:40;7.05;;;6.45;;
21860;SDS011;11095;48.066;8.540;2022-07-23T13:28:06;7.40;;;6.75;;
21860;SDS011;11095;48.066;8.540;2022-07-23T13:30:32;7.82;;;7.13;;
21860;SDS011;11095;48.066;8.540;2022-07-23T13:32:58;8.30;;;7.40;;
21860;SDS011;11095;48.066;8.540;2022-07-23T13:35:24;8.07;;;7.28;;
21860;SDS011;11095;48.066;8.540;2022-07-23T13:37:50;8.55;;;7.75;;
21860;SDS011;11095;48.066;8.540;2022-07-23T13:40:16;8.55;;;7.75;;
21860;SDS011;11095;48.066;8.540;2022-07-23T13:42:41;9.43;;;8.32;;
21860;SDS011;11095;48.066;8.540;2022-07-23T13:45:07;8.68;;;7.97;;
21860;SDS011;11095;48.066;8.540;2022-07-23T13:47:33;8.20;;;7.40;;
21860;SDS011;11095;48.066;8.540;2022-07-23T13:49:59;8.85;;;8.05;;
21860;SDS011;11095;48.066;8.540;2022-07-23T13:52:25;9.82;;;8.93;;
21860;SDS011;11095;48.066;8.540;2022-07-23T13:54:50;8.70;;;7.90;;
21860;SDS011;11095;48.066;8.540;2022-07-23T13:57:16;8.05;;;7.35;;
21860;SDS011;11095;48.066;8.540;2022-07-23T13:59:42;8.00;;;7.20;;
21860;SDS011;11095;48.066;8.540;2022-07-23T14:02:08;6.68;;;6.07;;
21860;SDS011;11095;48.066;8.540;2022-07-23T14:04:35;8.13;;;7.32;;
21860;SDS011;11095;48.066;8.540;2022-07-23T14:07:00;7.53;;;6.75;;
21860;SDS011;11095;48.066;8.540;2022-07-23T14:09:26;7.10;;;6.40;;
21860;SDS011;11095;48.066;8.540;2022-07-23T14:11:52;7.50;;;6.70;;
21860;SDS011;11095;48.066;8.540;2022-07-23T14:14:18;6.82;;;6.20;;
21860;SDS011;11095;48.066;8.540;2022-07-23T14:16:44;6.60;;;6.00;;
21860;SDS011;11095;48.066;8.540;2022-07-23T14:19:10;6.88;;;6.28;;
21860;SDS011;11095;48.066;8.540;2022-07-23T14:21:36;6.57;;;5.85;;
21860;SDS011;11095;48.066;8.540;2022-07-23T14:24:02;7.57;;;6.60;;
21860;SDS011;11095;48.066;8.540;2022-07-23T14:26:28;6.97;;;6.35;;
21860;SDS011;11095;48.066;8.540;2022-07-23T14:28:54;7.07;;;6.47;;
21860;SDS011;11095;48.066;8.540;2022-07-23T14:31:20;6.97;;;6.38;;
21860;SDS011;11095;48.066;8.540;2022-07-23T14:33:46;7.28;;;6.57;;
21860;SDS011;11095;48.066;8.540;2022-07-23T14:36:12;8.07;;;6.78;;
21860;SDS011;11095;48.066;8.540;2022-07-23T14:38:38;7.45;;;6.75;;
21860;SDS011;11095;48.066;8.540;2022-07-23T14:41:03;6.65;;;6.05;;
21860;SDS011;11095;48.066;8.540;2022-07-23T14:43:31;7.15;;;6.45;;
21860;SDS011;11095;48.066;8.540;2022-07-23T14:45:58;7.40;;;6.55;;
21860;SDS011;11095;48.066;8.540;2022-07-23T14:48:24;7.97;;;6.50;;
21860;SDS011;11095;48.066;8.540;2022-07-23T14:50:49;7.28;;;6.57;;
21860;SDS011;11095;48.066;8.540;2022-07-23T14:53:15;8.32;;;6.65;;
21860;SDS011;11095;48.066;8.540;2022-07-23T14:55:41;7.35;;;6.65;;
21860;SDS011;11095;48.066;8.540;2022-07-23T14:58:07;7.30;;;6.60;;
21860;SDS011;11095;48.066;8.540;2022-07-23T15:00:32;7.28;;;6.68;;
21860;SDS011;11095;48.066;8.540;2022-07-23T15:02:58;7.10;;;6.50;;
21860;SDS011;11095;48.066;8.540;2022-07-23T15:05:24;6.75;;;6.15;;
21860;SDS011;11095;48.066;8.540;2022-07-23T15:07:49;7.20;;;6.60;;
21860;SDS011;11095;48.066;8.540;2022-07-23T15:10:15;7.07;;;6.38;;
21860;SDS011;11095;48.066;8.540;2022-07-23T15:12:41;6.70;;;6.10;;
21860;SDS011;11095;48.066;8.540;2022-07-23T15:15:07;7.20;;;6.60;;
21860;SDS011;11095;48.066;8.540;2022-07-23T15:17:33;7.43;;;6.63;;
21860;SDS011;11095;48.066;8.540;2022-07-23T15:19:58;6.90;;;6.30;;
21860;SDS011;11095;48.066;8.540;2022-07-23T15:22:24;6.15;;;5.65;;
21860;SDS011;11095;48.066;8.540;2022-07-23T15:24:50;7.40;;;6.68;;
21860;SDS011;11095;48.066;8.540;2022-07-23T15:27:15;6.97;;;6.38;;
21860;SDS011;11095;48.066;8.540;2022-07-23T15:29:42;6.45;;;5.90;;